Time;durP1;ratioP1;P1;durP2;ratioP2;P2;SDS_P1;SDS_P2;PMS_P1;PMS_P2;Temp;Humidity;BMP_temperature;BMP_pressure;BME280_temperature;BME280_humidity;BME280_pressure;Samples;Min_cycle;Max_cycle;Signal;HPM_P1;HPM_P2
2022/09/02 00:08:13;;;;;;;1999.90;999.90;;;19.70;90.60;;;;;;6752177;88;20683;-76
2022/09/02 00:18:15;;;;;;;1999.90;999.90;;;19.50;90.80;;;;;;6738541;88;20193;-76
2022/09/02 00:28:17;;;;;;;1999.90;999.90;;;19.40;91.30;;;;;;6757481;88;20212;-76
2022/09/02 00:38:18;;;;;;;1999.90;999.90;;;19.30;91.50;;;;;;6740277;88;20209;-77
2022/09/02 00:48:18;;;;;;;1999.90;999.90;;;19.00;92.40;;;;;;6752359;88;20185;-76
2022/09/02 00:58:24;;;;;;;1999.90;999.90;;;18.70;92.90;;;;;;6743301;88;20261;-76
2022/09/02 01:08:28;;;;;;;1999.90;999.90;;;18.60;93.50;;;;;;6736818;88;20185;-76
2022/09/02 01:18:30;;;;;;;1999.90;999.90;;;18.50;94.40;;;;;;6744035;88;20230;-77
2022/09/02 01:28:32;;;;;;;1999.90;999.90;;;18.40;95.10;;;;;;6741698;88;20323;-76
2022/09/02 01:38:33;;;;;;;1999.90;999.90;;;18.30;95.60;;;;;;6746528;88;20613;-76
2022/09/02 01:48:33;;;;;;;1999.90;999.90;;;18.10;96.40;;;;;;6739912;88;20236;-75
2022/09/02 01:58:34;;;;;;;1999.90;999.90;;;17.90;97.00;;;;;;6740531;88;20574;-78
2022/09/02 02:08:34;;;;;;;1999.90;999.90;;;17.80;98.30;;;;;;6744942;88;20185;-77
2022/09/02 02:18:36;;;;;;;1999.90;999.90;;;17.70;99.40;;;;;;6742997;88;20300;-77
2022/09/02 02:28:37;;;;;;;1999.90;999.90;;;17.60;99.50;;;;;;6740601;88;20639;-76
2022/09/02 02:38:38;;;;;;;1999.90;999.90;;;17.50;99.90;;;;;;6742037;88;20185;-77
2022/09/02 02:48:39;;;;;;;1999.90;999.90;;;17.40;99.90;;;;;;6742676;88;20245;-76
2022/09/02 02:58:39;;;;;;;1999.90;999.90;;;17.30;99.90;;;;;;6742056;88;20184;-76
2022/09/02 03:08:40;;;;;;;1999.90;999.90;;;17.20;99.90;;;;;;6735717;88;20530;-77
2022/09/02 03:18:41;;;;;;;1999.90;999.90;;;17.00;99.90;;;;;;6742591;88;20190;-75
2022/09/02 03:28:41;;;;;;;1999.90;999.90;;;16.80;99.90;;;;;;6743874;88;20644;-76
2022/09/02 03:38:42;;;;;;;1999.90;999.90;;;16.70;99.90;;;;;;6742226;88;20211;-77
2022/09/02 03:48:43;;;;;;;1999.90;999.90;;;16.70;99.90;;;;;;6744488;88;20192;-77
2022/09/02 03:58:46;;;;;;;1999.90;999.90;;;16.70;99.90;;;;;;6754028;88;20394;-78
2022/09/02 04:08:47;;;;;;;1999.90;999.90;;;16.60;99.90;;;;;;6739200;88;20245;-76
2022/09/02 04:18:47;;;;;;;1999.90;999.90;;;16.60;99.90;;;;;;6743721;88;20907;-77
2022/09/02 04:28:48;;;;;;;1999.90;999.90;;;16.60;99.90;;;;;;6740547;88;20324;-77
2022/09/02 04:38:49;;;;;;;1999.90;999.90;;;16.50;99.90;;;;;;6739086;88;20244;-76
2022/09/02 04:48:50;;;;;;;1999.90;999.90;;;16.40;99.90;;;;;;6736802;88;20198;-76
2022/09/02 04:58:51;;;;;;;1999.90;999.90;;;16.40;99.90;;;;;;6736011;88;20497;-77
2022/09/02 05:08:57;;;;;;;1999.90;999.90;;;16.50;99.90;;;;;;6742510;88;20246;-78
2022/09/02 05:18:58;;;;;;;1999.90;999.90;;;16.40;99.90;;;;;;6744053;88;20295;-77
2022/09/02 05:29:08;;;;;;;1999.90;999.90;;;16.40;99.90;;;;;;6740911;88;20700;-77
2022/09/02 05:39:09;;;;;;;1999.90;999.90;;;16.60;99.90;;;;;;6739336;88;20192;-77
2022/09/02 05:49:15;;;;;;;1999.90;999.90;;;16.60;99.90;;;;;;6745195;88;20676;-78
2022/09/02 05:59:17;;;;;;;1999.90;999.90;;;16.70;99.90;;;;;;6739531;88;20538;-78
2022/09/02 06:09:21;;;;;;;1999.90;999.90;;;16.90;99.90;;;;;;6744108;88;20207;-79
2022/09/02 06:19:24;;;;;;;1999.90;999.90;;;17.10;99.90;;;;;;6750774;88;20250;-76
2022/09/02 06:29:25;;;;;;;1999.90;999.90;;;17.50;99.90;;;;;;6744121;88;20197;-76
2022/09/02 06:39:27;;;;;;;1999.90;999.90;;;17.80;99.90;;;;;;6735227;88;20205;-76
2022/09/02 06:49:28;;;;;;;1999.90;999.90;;;18.30;99.90;;;;;;6743493;88;20715;-76
2022/09/02 06:59:28;;;;;;;1999.90;999.90;;;18.70;99.90;;;;;;6741505;88;20221;-76
2022/09/02 07:09:31;;;;;;;1999.90;999.90;;;19.50;99.90;;;;;;6737674;88;20243;-75
2022/09/02 07:19:32;;;;;;;1999.90;999.90;;;20.00;99.70;;;;;;6733962;88;20254;-76
2022/09/02 07:29:34;;;;;;;1999.90;999.90;;;20.20;99.40;;;;;;6741790;88;20176;-76
2022/09/02 07:39:35;;;;;;;1999.90;999.90;;;20.40;98.70;;;;;;6749798;88;20180;-75
2022/09/02 07:49:35;;;;;;;1999.90;999.90;;;20.50;98.30;;;;;;6746497;88;20228;-76
2022/09/02 07:59:36;;;;;;;1999.90;999.90;;;21.00;97.80;;;;;;6741107;88;20203;-76
2022/09/02 08:09:37;;;;;;;1999.90;999.90;;;21.30;97.00;;;;;;6742639;88;20216;-75
2022/09/02 08:19:37;;;;;;;1999.90;999.90;;;21.90;96.10;;;;;;6736720;88;20222;-76
2022/09/02 08:29:38;;;;;;;1999.90;999.90;;;22.20;95.50;;;;;;6738088;88;20291;-76
2022/09/02 08:39:39;;;;;;;1999.90;999.90;;;23.30;94.30;;;;;;6742219;88;20262;-76
2022/09/02 08:49:47;;;;;;;1999.90;999.90;;;23.80;93.10;;;;;;6739890;88;20316;-75
2022/09/02 08:59:47;;;;;;;1999.90;999.90;;;23.80;92.20;;;;;;6745294;88;20177;-76
2022/09/02 09:10:11;;;;;;;1999.90;999.90;;;23.80;91.90;;;;;;6741400;88;20201;-75
2022/09/02 09:20:21;;;;;;;1999.90;999.90;;;24.60;90.80;;;;;;6743859;88;20907;-77
2022/09/02 09:30:22;;;;;;;1999.90;999.90;;;25.70;88.90;;;;;;6741836;88;20648;-76
2022/09/02 09:40:29;;;;;;;1999.90;999.90;;;25.50;87.70;;;;;;6744070;87;20190;-76
2022/09/02 09:50:30;;;;;;;1999.90;999.90;;;25.20;86.30;;;;;;6753666;88;20227;-75
2022/09/02 10:00:32;;;;;;;1999.90;999.90;;;25.60;84.20;;;;;;6743645;88;20201;-75
2022/09/02 10:10:34;;;;;;;1999.90;999.90;;;26.00;82.30;;;;;;6739585;88;20185;-76
2022/09/02 10:20:49;;;;;;;1999.90;999.90;;;26.10;80.90;;;;;;6743414;88;20201;-76
2022/09/02 10:31:18;;;;;;;1999.90;999.90;;;26.50;80.20;;;;;;6736860;88;20197;-76
2022/09/02 10:41:44;;;;;;;1999.90;999.90;;;26.20;79.60;;;;;;6739615;88;20381;-76
2022/09/02 10:52:02;;;;;;;1999.90;999.90;;;26.60;78.70;;;;;;6738450;88;20334;-76
2022/09/02 11:02:19;;;;;;;1999.90;999.90;;;26.40;76.10;;;;;;6738524;88;20206;-76
2022/09/02 11:12:31;;;;;;;1999.90;999.90;;;26.80;73.40;;;;;;6738022;88;20180;-76
2022/09/02 11:22:55;;;;;;;1999.90;999.90;;;27.00;73.30;;;;;;6738892;88;20821;-75
2022/09/02 11:33:14;;;;;;;1999.90;999.90;;;26.70;73.90;;;;;;6739418;88;20318;-76
2022/09/02 11:43:50;;;;;;;1999.90;999.90;;;27.60;71.70;;;;;;6739870;88;20688;-76
2022/09/02 11:53:52;;;;;;;1999.90;999.90;;;26.70;72.60;;;;;;6726208;88;20182;-76
2022/09/02 12:03:55;;;;;;;1999.90;999.90;;;27.10;72.10;;;;;;6737568;88;20240;-77
2022/09/02 12:13:57;;;;;;;1999.90;999.90;;;27.40;71.50;;;;;;6741994;88;20235;-76
2022/09/02 12:23:58;;;;;;;1999.90;999.90;;;27.90;71.00;;;;;;6745582;88;20232;-78
2022/09/02 12:34:01;;;;;;;1999.90;999.90;;;28.20;70.10;;;;;;6744677;88;20716;-76
2022/09/02 12:44:22;;;;;;;1999.90;999.90;;;27.50;71.30;;;;;;6743748;88;20661;-76
2022/09/02 12:54:47;;;;;;;1999.90;999.90;;;28.50;68.90;;;;;;6740060;88;20293;-76
2022/09/02 13:04:54;;;;;;;1999.90;999.90;;;29.10;68.20;;;;;;6733177;88;20208;-75
2022/09/02 13:15:15;;;;;;;1999.90;999.90;;;30.70;67.20;;;;;;6745043;88;20201;-77
2022/09/02 13:25:37;;;;;;;1999.90;999.90;;;29.20;66.10;;;;;;6747781;88;20858;-77
2022/09/02 13:35:40;;;;;;;1999.90;999.90;;;28.60;65.90;;;;;;6741588;88;20667;-76
2022/09/02 13:45:42;;;;;;;1999.90;999.90;;;28.60;64.90;;;;;;6746044;88;20720;-76
2022/09/02 13:55:47;;;;;;;;;;;28.80;64.40;;;;;;6745398;88;20180;-77
2022/09/02 14:05:55;;;;;;;1999.90;999.90;;;28.60;64.50;;;;;;6747977;88;20112;-77
2022/09/02 14:16:25;;;;;;;1999.90;999.90;;;29.70;62.80;;;;;;6746593;88;20184;-77
2022/09/02 14:26:37;;;;;;;1999.90;999.90;;;29.20;65.30;;;;;;6752632;88;20201;-77
2022/09/02 14:36:39;;;;;;;1999.90;999.90;;;28.80;63.20;;;;;;6746388;88;20767;-77
2022/09/02 14:46:51;;;;;;;1999.90;999.90;;;28.80;64.10;;;;;;6740498;88;20189;-76
2022/09/02 14:56:52;;;;;;;1999.90;999.90;;;29.10;63.40;;;;;;6729977;88;20181;-76
2022/09/02 15:06:53;;;;;;;1999.90;999.90;;;29.00;63.00;;;;;;6739674;88;20306;-76
2022/09/02 15:16:54;;;;;;;1999.90;999.90;;;28.10;64.00;;;;;;6737120;88;20185;-76
2022/09/02 15:26:54;;;;;;;1999.90;999.90;;;27.70;64.90;;;;;;6742464;88;20764;-77
2022/09/02 15:36:56;;;;;;;1999.90;999.90;;;28.30;64.40;;;;;;6740792;88;20644;-77
2022/09/02 15:46:56;;;;;;;1999.90;999.90;;;28.70;64.60;;;;;;6734558;88;20683;-75
2022/09/02 15:56:57;;;;;;;1999.90;999.90;;;27.80;63.80;;;;;;6737750;88;20206;-77
2022/09/02 16:06:59;;;;;;;1999.90;999.90;;;28.30;64.40;;;;;;6746074;88;20379;-76
2022/09/02 16:16:59;;;;;;;1999.90;999.90;;;27.80;64.00;;;;;;6742584;88;20201;-75
2022/09/02 16:27:00;;;;;;;1999.90;999.90;;;28.10;63.90;;;;;;6737461;88;20226;-75
2022/09/02 16:37:00;;;;;;;1999.90;999.90;;;27.10;64.40;;;;;;6712768;88;20211;-74
2022/09/02 16:47:01;;;;;;;1999.90;999.90;;;27.00;64.90;;;;;;6716225;88;20224;-76
2022/09/02 16:57:02;;;;;;;1999.90;999.90;;;26.70;64.40;;;;;;6727190;88;20201;-76
2022/09/02 17:07:03;;;;;;;1999.90;999.90;;;26.50;64.20;;;;;;6715192;88;20220;-76
2022/09/02 17:17:03;;;;;;;1999.90;999.90;;;26.10;64.60;;;;;;6724681;88;20252;-77
2022/09/02 17:27:04;;;;;;;1999.90;999.90;;;25.80;65.20;;;;;;6734726;88;20197;-75
2022/09/02 17:37:04;;;;;;;1999.90;999.90;;;25.70;65.50;;;;;;6737655;88;20235;-74
2022/09/02 17:47:05;;;;;;;1999.90;999.90;;;25.40;66.30;;;;;;6736037;88;20232;-77
2022/09/02 17:57:24;;;;;;;1999.90;999.90;;;25.00;66.80;;;;;;6725768;88;20228;-76
2022/09/02 18:07:48;;;;;;;1999.90;999.90;;;24.70;67.60;;;;;;6733606;88;20218;-76
2022/09/02 18:17:51;;;;;;;1999.90;999.90;;;24.40;68.20;;;;;;6734993;88;20204;-76
2022/09/02 18:28:08;;;;;;;1999.90;999.90;;;24.00;69.40;;;;;;6737666;88;20218;-76
2022/09/02 18:38:21;;;;;;;1999.90;999.90;;;23.80;69.90;;;;;;6743796;87;20213;-74
2022/09/02 18:48:27;;;;;;;1999.90;999.90;;;23.40;70.30;;;;;;6744632;88;20199;-75
2022/09/02 18:58:34;;;;;;;1999.90;999.90;;;23.20;70.60;;;;;;6734425;88;20204;-75
2022/09/02 19:08:36;;;;;;;1999.90;999.90;;;23.10;71.00;;;;;;6744692;88;20299;-77
2022/09/02 19:18:37;;;;;;;1999.90;999.90;;;22.80;72.00;;;;;;6733022;88;20682;-76
2022/09/02 19:28:39;;;;;;;1999.90;999.90;;;22.50;72.70;;;;;;6729668;88;20248;-77
2022/09/02 19:38:40;;;;;;;1999.90;999.90;;;22.30;73.20;;;;;;6730285;88;20189;-76
2022/09/02 19:48:40;;;;;;;1999.90;999.90;;;22.10;74.10;;;;;;6731158;88;20343;-76
2022/09/02 19:58:41;;;;;;;1999.90;999.90;;;22.00;73.70;;;;;;6733810;88;20313;-76
2022/09/02 20:08:41;;;;;;;1999.90;999.90;;;21.90;74.00;;;;;;6728801;88;20194;-76
2022/09/02 20:18:45;;;;;;;1999.90;999.90;;;21.70;74.30;;;;;;6740530;88;20288;-75
2022/09/02 20:29:11;;;;;;;1999.90;999.90;;;21.50;74.60;;;;;;6727771;88;20810;-75
2022/09/02 20:39:30;;;;;;;1999.90;999.90;;;21.40;75.20;;;;;;6736883;88;20351;-76
2022/09/02 20:50:02;;;;;;;1999.90;999.90;;;21.00;75.90;;;;;;6726698;88;20223;-75
2022/09/02 21:00:11;;;;;;;1999.90;999.90;;;20.80;76.30;;;;;;6733067;88;20220;-76
2022/09/02 21:10:25;;;;;;;1999.90;999.90;;;20.50;77.10;;;;;;6729591;88;20300;-76
2022/09/02 21:20:48;;;;;;;1999.90;999.90;;;20.30;77.80;;;;;;6724833;88;20307;-76
2022/09/02 21:30:56;;;;;;;1999.90;999.90;;;20.20;77.60;;;;;;6731295;88;21048;-76
2022/09/02 21:41:18;;;;;;;1999.90;999.90;;;20.20;77.30;;;;;;6740150;88;20192;-77
2022/09/02 21:51:26;;;;;;;1999.90;999.90;;;20.20;77.20;;;;;;6742135;88;21001;-76
2022/09/02 22:01:49;;;;;;;1999.90;999.90;;;20.10;76.70;;;;;;6738280;88;20336;-74
2022/09/02 22:12:13;;;;;;;1999.90;999.90;;;20.10;77.30;;;;;;6740906;88;20721;-76
2022/09/02 22:22:23;;;;;;;1999.90;999.90;;;20.00;77.30;;;;;;6757027;88;20167;-76
2022/09/02 22:32:36;;;;;;;1999.90;999.90;;;19.90;77.80;;;;;;6731000;88;20701;-77
2022/09/02 22:42:39;;;;;;;1999.90;999.90;;;19.70;78.20;;;;;;6735719;88;20233;-77
2022/09/02 22:52:53;;;;;;;1999.90;999.90;;;19.60;78.70;;;;;;6741149;88;20860;-77
2022/09/02 23:03:09;;;;;;;1999.90;999.90;;;19.50;79.30;;;;;;6739836;88;20183;-77
2022/09/02 23:13:20;;;;;;;1999.90;999.90;;;19.40;79.70;;;;;;6750101;88;20209;-76
2022/09/02 23:23:25;;;;;;;1999.90;999.90;;;19.30;79.80;;;;;;6741653;88;20310;-76
2022/09/02 23:33:29;;;;;;;1999.90;999.90;;;19.20;80.60;;;;;;6738393;88;20277;-76
2022/09/02 23:43:29;;;;;;;1999.90;999.90;;;19.00;82.00;;;;;;6732755;88;20253;-77
2022/09/02 23:53:48;;;;;;;1999.90;999.90;;;18.80;83.80;;;;;;6743631;88;20641;-77
